createdAt,value
2023-01-29T00:02:00.621Z,100.00
2023-01-29T00:04:28.715Z,100.00
2023-01-29T00:06:58.158Z,100.00
2023-01-29T00:09:35.388Z,100.00
2023-01-29T00:12:03.541Z,100.00
2023-01-29T00:14:31.589Z,100.00
2023-01-29T00:16:59.760Z,100.00
2023-01-29T00:19:27.842Z,100.00
2023-01-29T00:21:57.242Z,100.00
2023-01-29T00:24:25.398Z,100.00
2023-01-29T00:26:53.468Z,100.00
2023-01-29T00:29:22.087Z,100.00
2023-01-29T00:31:50.274Z,100.00
2023-01-29T00:34:18.583Z,100.00
2023-01-29T00:36:46.740Z,100.00
2023-01-29T00:39:16.133Z,100.00
2023-01-29T00:42:01.713Z,100.00
2023-01-29T00:44:47.225Z,100.00
2023-01-29T00:47:34.191Z,100.00
2023-01-29T00:50:02.733Z,100.00
2023-01-29T00:52:30.941Z,100.00
2023-01-29T00:55:01.956Z,100.00
2023-01-29T00:57:32.090Z,100.00
2023-01-29T01:00:00.408Z,100.00
2023-01-29T01:02:46.589Z,100.00
2023-01-29T01:05:18.932Z,100.00
2023-01-29T01:07:48.099Z,100.00
2023-01-29T01:10:22.257Z,100.00
2023-01-29T01:12:55.238Z,100.00
2023-01-29T01:15:24.587Z,100.00
2023-01-29T01:17:56.180Z,100.00
2023-01-29T01:20:24.715Z,100.00
2023-01-29T01:22:54.397Z,100.00
2023-01-29T01:25:24.322Z,100.00
2023-01-29T01:27:54.180Z,100.00
2023-01-29T01:30:22.468Z,100.00
2023-01-29T01:32:50.568Z,100.00
2023-01-29T01:35:18.827Z,100.00
2023-01-29T01:37:47.024Z,100.00
2023-01-29T01:40:20.954Z,100.00
2023-01-29T01:42:51.443Z,100.00
2023-01-29T01:45:22.931Z,100.00
2023-01-29T01:47:54.951Z,100.00
2023-01-29T01:50:26.419Z,100.00
2023-01-29T01:52:59.055Z,100.00
2023-01-29T01:55:30.982Z,100.00
2023-01-29T01:58:07.525Z,100.00
2023-01-29T02:00:35.563Z,100.00
2023-01-29T02:03:23.021Z,100.00
2023-01-29T02:06:09.514Z,100.00
2023-01-29T02:09:01.632Z,100.00
2023-01-29T02:11:29.702Z,100.00
2023-01-29T02:13:59.389Z,100.00
2023-01-29T02:16:27.657Z,100.00
2023-01-29T02:18:55.713Z,100.00
2023-01-29T02:21:58.693Z,100.00
2023-01-29T02:25:10.552Z,100.00
2023-01-29T02:28:11.974Z,100.00
2023-01-29T02:30:46.758Z,100.00
2023-01-29T02:33:22.599Z,100.00
2023-01-29T02:36:01.292Z,100.00
2023-01-29T02:38:36.379Z,100.00
2023-01-29T02:41:12.825Z,100.00
2023-01-29T02:43:48.264Z,100.00
2023-01-29T02:46:31.258Z,100.00
2023-01-29T02:49:03.232Z,100.00
2023-01-29T02:51:39.855Z,100.00
2023-01-29T02:54:11.861Z,100.00
2023-01-29T02:56:46.771Z,100.00
2023-01-29T02:59:22.440Z,100.00
2023-01-29T03:01:54.844Z,100.00
2023-01-29T03:04:27.784Z,100.00
2023-01-29T03:07:01.975Z,100.00
2023-01-29T03:09:35.956Z,100.00
2023-01-29T03:12:31.295Z,100.00
2023-01-29T03:15:12.516Z,100.00
2023-01-29T03:17:46.654Z,100.00
2023-01-29T03:20:19.015Z,100.00
2023-01-29T03:22:52.236Z,100.00
2023-01-29T03:25:42.942Z,100.00
2023-01-29T03:28:31.113Z,100.00
2023-01-29T03:31:23.331Z,100.00
2023-01-29T03:33:53.891Z,100.00
2023-01-29T03:36:28.045Z,100.00
2023-01-29T03:38:56.069Z,100.00
2023-01-29T03:41:30.700Z,100.00
2023-01-29T03:44:11.415Z,100.00
2023-01-29T03:46:47.829Z,100.00
2023-01-29T03:49:23.171Z,100.00
2023-01-29T03:51:57.705Z,100.00
2023-01-29T03:54:32.658Z,100.00
2023-01-29T03:57:05.641Z,100.00
2023-01-29T03:59:40.868Z,100.00
2023-01-29T04:02:15.577Z,100.00
2023-01-29T04:04:46.431Z,100.00
2023-01-29T04:07:17.534Z,100.00
2023-01-29T04:09:49.750Z,100.00
2023-01-29T04:12:24.698Z,100.00
2023-01-29T04:14:55.511Z,100.00
2023-01-29T04:17:33.040Z,100.00
2023-01-29T04:20:02.709Z,100.00
2023-01-29T04:22:34.287Z,100.00
2023-01-29T04:25:08.670Z,100.00
2023-01-29T04:27:46.424Z,100.00
2023-01-29T04:30:27.790Z,100.00
2023-01-29T04:33:05.571Z,100.00
2023-01-29T04:35:42.661Z,100.00
2023-01-29T04:38:24.962Z,100.00
2023-01-29T04:41:04.225Z,100.00
2023-01-29T04:43:46.357Z,100.00
2023-01-29T04:46:19.627Z,100.00
2023-01-29T04:49:02.828Z,100.00
2023-01-29T04:51:39.168Z,100.00
2023-01-29T04:54:12.576Z,100.00
2023-01-29T04:56:48.294Z,100.00
2023-01-29T04:59:22.818Z,100.00
2023-01-29T05:01:51.129Z,100.00
2023-01-29T05:04:22.830Z,100.00
2023-01-29T05:06:51.563Z,100.00
2023-01-29T05:09:20.995Z,100.00
2023-01-29T05:11:51.301Z,100.00
2023-01-29T05:14:21.051Z,100.00
2023-01-29T05:16:52.817Z,100.00
2023-01-29T05:19:22.201Z,100.00
2023-01-29T05:21:51.498Z,100.00
2023-01-29T05:24:22.090Z,100.00
2023-01-29T05:27:11.735Z,100.00
2023-01-29T05:29:41.377Z,100.00
2023-01-29T05:32:09.420Z,100.00
2023-01-29T05:34:39.216Z,100.00
2023-01-29T05:37:07.279Z,100.00
2023-01-29T05:39:35.300Z,100.00
2023-01-29T05:42:03.689Z,100.00
2023-01-29T05:44:31.710Z,100.00
2023-01-29T05:46:59.686Z,100.00
2023-01-29T05:49:27.679Z,100.00
2023-01-29T05:51:57.064Z,100.00
2023-01-29T05:54:25.097Z,100.00
2023-01-29T05:56:53.132Z,100.00
2023-01-29T05:59:21.487Z,100.00
2023-01-29T06:01:49.555Z,100.00
2023-01-29T06:04:17.598Z,100.00
2023-01-29T06:06:45.671Z,100.00
2023-01-29T06:09:15.224Z,100.00
2023-01-29T06:11:43.201Z,100.00
2023-01-29T06:14:11.353Z,100.00
2023-01-29T06:16:39.428Z,100.00
2023-01-29T06:19:07.449Z,100.00
2023-01-29T06:21:35.429Z,100.00
2023-01-29T06:24:03.543Z,100.00
2023-01-29T06:26:32.958Z,100.00
2023-01-29T06:29:00.982Z,100.00
2023-01-29T06:31:39.689Z,100.00
2023-01-29T06:34:08.227Z,100.00
2023-01-29T06:36:36.475Z,100.00
2023-01-29T06:39:04.986Z,100.00
2023-01-29T06:41:34.654Z,100.00
2023-01-29T06:44:02.729Z,100.00
2023-01-29T06:46:30.788Z,100.00
2023-01-29T06:49:00.427Z,100.00
2023-01-29T06:51:28.558Z,100.00
2023-01-29T06:53:56.582Z,100.00
2023-01-29T06:56:25.311Z,100.00
2023-01-29T06:58:54.739Z,100.00
2023-01-29T07:01:35.184Z,100.00
2023-01-29T07:04:04.444Z,100.00
2023-01-29T07:06:32.790Z,100.00
2023-01-29T07:09:01.130Z,100.00
2023-01-29T07:11:29.161Z,100.00
2023-01-29T07:13:58.646Z,100.00
2023-01-29T07:16:27.294Z,100.00
2023-01-29T07:18:55.385Z,100.00
2023-01-29T07:21:23.522Z,100.00
2023-01-29T07:23:51.601Z,100.00
2023-01-29T07:26:19.611Z,100.00
2023-01-29T07:28:47.750Z,100.00
2023-01-29T07:31:17.307Z,100.00
2023-01-29T07:33:45.945Z,100.00
2023-01-29T07:36:14.826Z,100.00
2023-01-29T07:38:42.858Z,100.00
2023-01-29T07:41:12.692Z,100.00
2023-01-29T07:43:40.808Z,100.00
2023-01-29T07:46:09.661Z,100.00
2023-01-29T07:48:39.220Z,100.00
2023-01-29T07:51:07.781Z,100.00
2023-01-29T07:53:35.937Z,100.00
2023-01-29T07:56:04.436Z,100.00
2023-01-29T07:58:35.648Z,100.00
2023-01-29T08:01:06.953Z,100.00
2023-01-29T08:03:35.014Z,100.00
2023-01-29T08:06:04.954Z,100.00
2023-01-29T08:08:33.041Z,100.00
2023-01-29T08:11:03.046Z,100.00
2023-01-29T08:13:31.113Z,100.00
2023-01-29T08:16:02.150Z,100.00
2023-01-29T08:18:31.641Z,100.00
2023-01-29T08:21:04.529Z,100.00
2023-01-29T08:23:32.538Z,100.00
2023-01-29T08:26:00.648Z,100.00
2023-01-29T08:28:30.599Z,100.00
2023-01-29T08:30:58.762Z,100.00
2023-01-29T08:33:38.363Z,100.00
2023-01-29T08:36:09.422Z,100.00
2023-01-29T08:38:37.700Z,100.00
2023-01-29T08:41:05.948Z,100.00
2023-01-29T08:43:35.324Z,100.00
2023-01-29T08:46:05.448Z,100.00
2023-01-29T08:48:33.502Z,100.00
2023-01-29T08:51:02.511Z,100.00
2023-01-29T08:53:32.058Z,100.00
2023-01-29T08:56:00.183Z,100.00
2023-01-29T08:58:28.297Z,100.00
2023-01-29T09:00:56.569Z,100.00
2023-01-29T09:03:24.649Z,100.00
2023-01-29T09:05:52.630Z,100.00
2023-01-29T09:08:20.642Z,100.00
2023-01-29T09:10:50.030Z,100.00
2023-01-29T09:13:18.068Z,100.00
2023-01-29T09:15:46.077Z,100.00
2023-01-29T09:18:14.040Z,100.00
2023-01-29T09:20:42.136Z,100.00
2023-01-29T09:23:11.409Z,100.00
2023-01-29T09:25:39.451Z,100.00
2023-01-29T09:28:08.944Z,100.00
2023-01-29T09:30:38.310Z,100.00
2023-01-29T09:33:06.692Z,100.00
2023-01-29T09:35:35.085Z,100.00
2023-01-29T09:38:03.108Z,100.00
2023-01-29T09:40:36.940Z,100.00
2023-01-29T09:43:14.059Z,100.00
2023-01-29T09:45:51.433Z,100.00
2023-01-29T09:48:22.216Z,100.00
2023-01-29T09:50:52.757Z,100.00
2023-01-29T09:53:26.397Z,100.00
2023-01-29T09:56:00.162Z,100.00
2023-01-29T09:58:33.720Z,100.00
2023-01-29T10:01:10.771Z,100.00
2023-01-29T10:04:03.844Z,100.00
2023-01-29T10:06:51.071Z,100.00
2023-01-29T10:09:49.200Z,100.00
2023-01-29T10:12:31.506Z,100.00
2023-01-29T10:15:10.725Z,100.00
2023-01-29T10:17:54.713Z,100.00
2023-01-29T10:20:50.189Z,100.00
2023-01-29T10:23:23.447Z,99.88
2023-01-29T10:25:51.495Z,99.28
2023-01-29T10:28:21.880Z,98.97
2023-01-29T10:30:55.706Z,98.37
2023-01-29T10:33:31.050Z,97.35
2023-01-29T10:36:08.478Z,97.40
2023-01-29T10:38:44.157Z,96.98
2023-01-29T10:41:46.320Z,96.77
2023-01-29T10:44:28.647Z,96.45
2023-01-29T10:47:19.666Z,96.62
2023-01-29T10:50:06.516Z,97.05
2023-01-29T10:52:45.896Z,97.24
2023-01-29T10:55:29.454Z,97.26
2023-01-29T10:58:05.381Z,97.21
2023-01-29T11:00:38.610Z,97.07
2023-01-29T11:03:27.096Z,97.12
2023-01-29T11:06:02.672Z,97.18
2023-01-29T11:08:36.298Z,97.38
2023-01-29T11:11:09.540Z,97.61
2023-01-29T11:13:43.986Z,97.79
2023-01-29T11:16:12.098Z,97.92
2023-01-29T11:18:58.714Z,98.12
2023-01-29T11:21:28.536Z,97.93
2023-01-29T11:24:08.523Z,98.19
2023-01-29T11:26:40.395Z,97.90
2023-01-29T11:29:32.788Z,97.83
2023-01-29T11:32:02.628Z,98.01
2023-01-29T11:34:32.353Z,98.00
2023-01-29T11:37:01.943Z,98.43
2023-01-29T11:39:33.754Z,98.58
2023-01-29T11:42:03.859Z,98.41
2023-01-29T11:44:33.231Z,97.56
2023-01-29T11:47:19.252Z,95.89
2023-01-29T11:49:51.617Z,95.22
2023-01-29T11:52:22.204Z,94.99
2023-01-29T11:54:54.659Z,95.32
2023-01-29T11:57:34.372Z,95.24
2023-01-29T12:00:06.696Z,94.23
2023-01-29T12:02:38.535Z,93.15
2023-01-29T12:05:17.556Z,92.52
2023-01-29T12:07:49.077Z,92.22
2023-01-29T12:10:36.682Z,91.92
2023-01-29T12:13:26.995Z,91.49
2023-01-29T12:16:13.963Z,91.06
2023-01-29T12:18:45.562Z,90.75
2023-01-29T12:21:20.241Z,91.13
2023-01-29T12:23:56.282Z,91.36
2023-01-29T12:26:31.136Z,91.59
2023-01-29T12:29:15.093Z,91.54
2023-01-29T12:31:50.490Z,91.75
2023-01-29T12:34:24.855Z,91.65
2023-01-29T12:37:00.638Z,91.57
2023-01-29T12:39:28.888Z,91.51
2023-01-29T12:42:03.564Z,91.46
2023-01-29T12:44:42.327Z,91.11
2023-01-29T12:47:20.358Z,91.04
2023-01-29T12:49:55.119Z,90.99
2023-01-29T12:52:31.881Z,90.53
2023-01-29T12:55:03.853Z,90.68
2023-01-29T12:57:40.626Z,90.62
2023-01-29T13:00:15.696Z,90.32
2023-01-29T13:02:51.089Z,90.47
2023-01-29T13:05:24.553Z,90.69
2023-01-29T13:07:59.416Z,90.86
2023-01-29T13:10:32.090Z,91.61
2023-01-29T13:13:05.187Z,92.60
2023-01-29T13:15:38.111Z,92.91
2023-01-29T13:18:32.249Z,93.04
2023-01-29T13:21:01.561Z,93.66
2023-01-29T13:23:36.142Z,94.10
2023-01-29T13:26:05.757Z,94.75
2023-01-29T13:28:34.064Z,95.13
2023-01-29T13:31:23.657Z,95.50
2023-01-29T13:34:00.854Z,95.93
2023-01-29T13:36:32.866Z,95.78
2023-01-29T13:39:07.176Z,95.47
2023-01-29T13:41:37.834Z,94.80
2023-01-29T13:44:09.368Z,93.96
2023-01-29T13:46:42.777Z,93.23
2023-01-29T13:49:27.958Z,92.72
2023-01-29T13:51:56.261Z,92.22
2023-01-29T13:54:29.186Z,92.36
2023-01-29T13:57:02.197Z,92.56
2023-01-29T13:59:52.037Z,92.73
2023-01-29T14:02:27.791Z,93.17
2023-01-29T14:05:28.836Z,93.51
2023-01-29T14:07:59.298Z,93.64
2023-01-29T14:10:30.103Z,93.15
2023-01-29T14:13:27.699Z,91.75
2023-01-29T14:16:25.546Z,90.08
2023-01-29T14:18:58.415Z,89.50
2023-01-29T14:21:32.754Z,90.53
2023-01-29T14:24:10.953Z,90.95
2023-01-29T14:26:49.850Z,90.77
2023-01-29T14:29:32.635Z,91.34
2023-01-29T14:32:17.824Z,92.01
2023-01-29T14:34:49.176Z,92.58
2023-01-29T14:37:23.681Z,93.25
2023-01-29T14:39:53.299Z,92.83
2023-01-29T14:42:27.004Z,92.32
2023-01-29T14:45:11.356Z,91.90
2023-01-29T14:47:59.718Z,91.95
2023-01-29T14:50:53.267Z,91.86
2023-01-29T14:53:26.652Z,92.12
2023-01-29T14:56:00.180Z,92.34
2023-01-29T14:58:38.060Z,93.11
2023-01-29T15:01:16.063Z,93.34
2023-01-29T15:03:50.056Z,92.64
2023-01-29T15:06:23.005Z,92.65
2023-01-29T15:08:56.904Z,92.78
2023-01-29T15:11:35.127Z,92.58
2023-01-29T15:14:24.970Z,91.64
2023-01-29T15:17:19.512Z,91.03
2023-01-29T15:19:49.301Z,90.91
2023-01-29T15:22:18.762Z,90.88
2023-01-29T15:24:49.336Z,90.27
2023-01-29T15:27:19.741Z,89.44
2023-01-29T15:29:55.737Z,88.95
2023-01-29T15:32:30.275Z,88.84
2023-01-29T15:35:00.432Z,88.34
2023-01-29T15:37:29.357Z,87.99
2023-01-29T15:39:58.369Z,87.60
2023-01-29T15:42:28.508Z,87.64
2023-01-29T15:44:58.006Z,87.90
2023-01-29T15:47:30.018Z,88.10
2023-01-29T15:49:58.789Z,87.94
2023-01-29T15:52:33.115Z,88.00
2023-01-29T15:55:05.953Z,87.44
2023-01-29T15:57:40.600Z,87.31
2023-01-29T16:00:23.539Z,86.91
2023-01-29T16:02:52.150Z,86.22
2023-01-29T16:05:23.226Z,85.56
2023-01-29T16:07:52.427Z,85.47
2023-01-29T16:10:22.420Z,85.79
2023-01-29T16:12:52.782Z,86.11
2023-01-29T16:15:54.571Z,86.08
2023-01-29T16:18:25.299Z,86.20
2023-01-29T16:20:54.728Z,86.21
2023-01-29T16:23:27.736Z,86.12
2023-01-29T16:25:57.825Z,86.08
2023-01-29T16:28:25.956Z,86.08
2023-01-29T16:31:01.870Z,85.81
2023-01-29T16:33:36.348Z,85.72
2023-01-29T16:36:06.221Z,85.56
2023-01-29T16:38:37.226Z,85.67
2023-01-29T16:41:09.517Z,85.57
2023-01-29T16:43:49.182Z,85.70
2023-01-29T16:46:22.635Z,85.58
2023-01-29T16:49:26.014Z,85.69
2023-01-29T16:51:54.732Z,86.07
2023-01-29T16:54:26.552Z,86.28
2023-01-29T16:56:59.924Z,86.86
2023-01-29T16:59:33.631Z,87.41
2023-01-29T17:02:04.124Z,88.33
2023-01-29T17:04:32.250Z,88.98
2023-01-29T17:07:02.541Z,89.49
2023-01-29T17:09:33.739Z,89.88
2023-01-29T17:12:06.517Z,90.14
2023-01-29T17:14:36.068Z,90.03
2023-01-29T17:17:07.871Z,89.70
2023-01-29T17:19:35.925Z,89.72
2023-01-29T17:22:10.599Z,89.51
2023-01-29T17:24:41.331Z,89.53
2023-01-29T17:27:27.397Z,89.78
2023-01-29T17:30:01.847Z,90.09
2023-01-29T17:32:43.550Z,90.69
2023-01-29T17:35:14.388Z,91.40
2023-01-29T17:37:42.575Z,92.29
2023-01-29T17:40:35.009Z,92.74
2023-01-29T17:43:03.100Z,93.53
2023-01-29T17:45:46.769Z,94.07
2023-01-29T17:48:20.277Z,94.35
2023-01-29T17:50:53.482Z,94.49
2023-01-29T17:53:44.328Z,94.24
2023-01-29T17:56:33.638Z,93.89
2023-01-29T17:59:02.103Z,93.60
2023-01-29T18:01:30.547Z,93.46
2023-01-29T18:04:03.311Z,93.42
2023-01-29T18:06:33.603Z,93.40
2023-01-29T18:09:01.754Z,93.61
2023-01-29T18:11:29.926Z,93.66
2023-01-29T18:14:03.603Z,93.70
2023-01-29T18:16:45.546Z,93.59
2023-01-29T18:19:27.663Z,94.08
2023-01-29T18:21:55.964Z,94.00
2023-01-29T18:24:26.613Z,94.22
2023-01-29T18:26:54.830Z,94.46
2023-01-29T18:29:23.103Z,94.66
2023-01-29T18:31:51.206Z,94.44
2023-01-29T18:34:39.531Z,94.55
2023-01-29T18:37:12.959Z,94.62
2023-01-29T18:39:47.029Z,94.56
2023-01-29T18:42:15.089Z,94.85
2023-01-29T18:44:56.837Z,95.29
2023-01-29T18:47:31.414Z,95.30
2023-01-29T18:50:00.995Z,95.82
2023-01-29T18:52:29.134Z,96.01
2023-01-29T18:55:03.357Z,96.75
2023-01-29T18:58:26.937Z,97.17
2023-01-29T19:00:20.303Z,97.34
2023-01-29T19:02:57.874Z,97.49
2023-01-29T19:05:38.933Z,97.47
2023-01-29T19:08:07.489Z,97.94
2023-01-29T19:10:41.742Z,98.37
2023-01-29T19:13:16.370Z,98.77
2023-01-29T19:15:45.199Z,99.84
2023-01-29T19:18:14.704Z,100.00
2023-01-29T19:20:51.246Z,100.00
2023-01-29T19:23:19.382Z,100.00
2023-01-29T19:25:54.345Z,100.00
2023-01-29T19:28:22.737Z,100.00
2023-01-29T19:30:50.948Z,100.00
2023-01-29T19:33:19.217Z,100.00
2023-01-29T19:35:50.959Z,100.00
2023-01-29T19:38:28.877Z,100.00
2023-01-29T19:41:00.844Z,100.00
2023-01-29T19:43:31.835Z,100.00
2023-01-29T19:46:03.014Z,100.00
2023-01-29T19:48:34.905Z,100.00
2023-01-29T19:51:08.968Z,100.00
2023-01-29T19:53:38.145Z,100.00
2023-01-29T19:56:14.224Z,100.00
2023-01-29T19:58:43.130Z,100.00
2023-01-29T20:01:16.038Z,100.00
2023-01-29T20:03:46.549Z,100.00
2023-01-29T20:06:17.790Z,100.00
2023-01-29T20:08:46.865Z,100.00
2023-01-29T20:11:15.832Z,100.00
2023-01-29T20:13:44.710Z,100.00
2023-01-29T20:16:13.091Z,100.00
2023-01-29T20:18:41.264Z,100.00
2023-01-29T20:21:11.923Z,100.00
2023-01-29T20:23:43.742Z,100.00
2023-01-29T20:26:15.029Z,100.00
2023-01-29T20:28:43.449Z,100.00
2023-01-29T20:31:11.789Z,100.00
2023-01-29T20:33:40.454Z,100.00
2023-01-29T20:36:11.555Z,100.00
2023-01-29T20:38:41.193Z,100.00
2023-01-29T20:41:10.811Z,100.00
2023-01-29T20:43:39.173Z,100.00
2023-01-29T20:46:07.832Z,100.00
2023-01-29T20:48:36.207Z,100.00
2023-01-29T20:51:09.909Z,100.00
2023-01-29T20:53:38.695Z,100.00
2023-01-29T20:56:09.193Z,100.00
2023-01-29T20:58:41.011Z,100.00
2023-01-29T21:01:10.260Z,100.00
2023-01-29T21:03:39.106Z,100.00
2023-01-29T21:06:08.600Z,100.00
2023-01-29T21:08:37.476Z,100.00
2023-01-29T21:11:06.654Z,100.00
2023-01-29T21:13:36.550Z,100.00
2023-01-29T21:16:05.102Z,100.00
2023-01-29T21:18:33.600Z,100.00
2023-01-29T21:21:01.645Z,100.00
2023-01-29T21:23:29.869Z,100.00
2023-01-29T21:26:03.627Z,98.95
2023-01-29T21:28:32.019Z,95.96
2023-01-29T21:31:10.298Z,93.49
2023-01-29T21:33:38.757Z,93.08
2023-01-29T21:36:08.499Z,92.64
2023-01-29T21:38:36.565Z,92.85
2023-01-29T21:41:07.306Z,92.39
2023-01-29T21:43:34.620Z,92.09
2023-01-29T21:46:05.193Z,91.29
2023-01-29T21:48:34.759Z,90.46
2023-01-29T21:51:02.965Z,89.38
2023-01-29T21:53:31.034Z,88.65
2023-01-29T21:56:01.077Z,87.70
2023-01-29T21:58:29.370Z,87.09
2023-01-29T22:01:18.122Z,87.26
2023-01-29T22:03:47.640Z,87.49
2023-01-29T22:06:15.923Z,87.27
2023-01-29T22:08:44.236Z,86.19
2023-01-29T22:11:12.639Z,85.55
2023-01-29T22:13:40.795Z,85.01
2023-01-29T22:16:09.478Z,84.80
2023-01-29T22:18:37.475Z,84.72
2023-01-29T22:21:07.119Z,84.69
2023-01-29T22:23:35.134Z,84.31
2023-01-29T22:26:07.171Z,84.61
2023-01-29T22:28:35.254Z,84.05
2023-01-29T22:31:03.631Z,83.79
2023-01-29T22:33:32.170Z,83.96
2023-01-29T22:36:00.842Z,84.61
2023-01-29T22:38:30.776Z,84.34
2023-01-29T22:41:01.454Z,84.17
2023-01-29T22:43:30.265Z,84.33
2023-01-29T22:45:58.687Z,84.56
2023-01-29T22:48:27.082Z,84.60
2023-01-29T22:51:09.547Z,84.41
2023-01-29T22:53:39.719Z,84.34
2023-01-29T22:56:08.392Z,84.30
2023-01-29T22:58:36.475Z,84.69
2023-01-29T23:01:04.966Z,85.10
2023-01-29T23:03:33.135Z,85.35
2023-01-29T23:06:01.305Z,85.51
2023-01-29T23:08:29.475Z,85.37
2023-01-29T23:11:14.211Z,85.34
2023-01-29T23:13:43.986Z,85.61
2023-01-29T23:16:12.235Z,86.34
2023-01-29T23:18:40.423Z,86.40
2023-01-29T23:21:08.760Z,86.68
2023-01-29T23:23:38.678Z,86.94
2023-01-29T23:26:26.427Z,87.06
2023-01-29T23:28:54.490Z,87.15
2023-01-29T23:31:22.691Z,86.83
2023-01-29T23:33:50.822Z,86.47
2023-01-29T23:36:19.240Z,85.91
2023-01-29T23:38:47.259Z,85.57
2023-01-29T23:41:16.666Z,85.25
2023-01-29T23:43:44.757Z,84.72
2023-01-29T23:46:12.885Z,84.40
2023-01-29T23:48:40.986Z,83.89
2023-01-29T23:51:09.021Z,83.93
2023-01-29T23:53:37.145Z,83.67
2023-01-29T23:56:06.534Z,83.52
2023-01-29T23:58:36.428Z,84.48
